Kimball, Texas
Current Conditions -  °F | °C
As of 2:35 AM on Friday 31 Oct 2014 (Local Time) from KCPT Reporting Station
Clear Clear  
Wind Chill: 55°   Ceiling: Unl
Heat Index: 55°   Visibility: 10mi
Dew Point: 52°   Wind: 6mph
Humidity: 88%   Direction: 340°NNW
Pressure: 30.21"   Gusts: NA
Location:  32.1115°N, 97.5857°W
Report Text: KCPT 310735Z AUTO 34005KT 10SM CLR 13/11 A3021 RMK AO2
Loading
Personal Weather Stations






























Interactive Weather Map
Tropical Storm Tracking
New forecast layout! Learn more

10-Day Weather Forecast

Advertisements
Track Severe Weather on mobile